createdAt,value
2018-06-14T00:01:38.789Z,100745.00
2018-06-14T00:04:09.988Z,100739.00
2018-06-14T00:06:39.205Z,100749.00
2018-06-14T00:09:10.347Z,100753.00
2018-06-14T00:11:39.606Z,100764.00
2018-06-14T00:14:08.771Z,100752.00
2018-06-14T00:16:38.012Z,100756.00
2018-06-14T00:19:07.380Z,100752.00
2018-06-14T00:21:36.512Z,100744.00
2018-06-14T00:24:06.077Z,100748.00
2018-06-14T00:26:35.250Z,100736.00
2018-06-14T00:29:04.479Z,100757.00
2018-06-14T00:31:33.712Z,100751.00
2018-06-14T00:34:03.192Z,100749.00
2018-06-14T00:36:32.897Z,100752.00
2018-06-14T00:39:03.319Z,100741.00
2018-06-14T00:41:32.528Z,100747.00
2018-06-14T00:44:01.641Z,100743.00
2018-06-14T00:46:30.933Z,100747.00
2018-06-14T00:49:00.103Z,100751.00
2018-06-14T00:51:30.172Z,100749.00
2018-06-14T00:53:59.280Z,100755.00
2018-06-14T00:56:28.417Z,100749.00
2018-06-14T00:58:57.619Z,100752.00
2018-06-14T01:01:26.902Z,100753.00
2018-06-14T01:03:56.093Z,100757.00
2018-06-14T01:06:25.193Z,100753.00
2018-06-14T01:08:54.322Z,100755.00
2018-06-14T01:11:23.534Z,100760.00
2018-06-14T01:13:52.670Z,100764.00
2018-06-14T01:16:21.796Z,100767.00
2018-06-14T01:18:50.895Z,100763.00
2018-06-14T01:21:20.029Z,100766.00
2018-06-14T01:23:49.828Z,100762.00
2018-06-14T01:26:18.935Z,100765.00
2018-06-14T01:28:48.086Z,100761.00
2018-06-14T01:31:17.324Z,100773.00
2018-06-14T01:33:46.578Z,100768.00
2018-06-14T01:36:15.800Z,100765.00
2018-06-14T01:38:44.970Z,100761.00
2018-06-14T01:41:15.860Z,100763.00
2018-06-14T01:43:45.022Z,100767.00
2018-06-14T01:46:14.325Z,100769.00
2018-06-14T01:48:44.025Z,100763.00
2018-06-14T01:51:13.182Z,100763.00
2018-06-14T01:53:42.295Z,100766.00
2018-06-14T01:56:11.591Z,100759.00
2018-06-14T01:58:41.941Z,100752.00
2018-06-14T02:01:11.029Z,100754.00
2018-06-14T02:03:40.149Z,100749.00
2018-06-14T02:06:09.316Z,100753.00
2018-06-14T02:08:38.527Z,100757.00
2018-06-14T02:11:07.614Z,100758.00
2018-06-14T02:13:36.828Z,100755.00
2018-06-14T02:16:08.238Z,100766.00
2018-06-14T02:18:41.823Z,100760.00
2018-06-14T02:21:10.929Z,100752.00
2018-06-14T02:23:41.305Z,100752.00
2018-06-14T02:26:10.452Z,100754.00
2018-06-14T02:28:39.612Z,100760.00
2018-06-14T02:31:08.740Z,100767.00
2018-06-14T02:33:38.749Z,100765.00
2018-06-14T02:36:07.860Z,100763.00
2018-06-14T02:38:36.982Z,100763.00
2018-06-14T02:41:06.131Z,100756.00
2018-06-14T02:43:35.275Z,100767.00
2018-06-14T02:46:05.385Z,100761.00
2018-06-14T02:48:34.617Z,100773.00
2018-06-14T02:51:03.765Z,100770.00
2018-06-14T02:53:32.992Z,100774.00
2018-06-14T02:56:02.141Z,100768.00
2018-06-14T02:58:31.012Z,100768.00
2018-06-14T03:01:00.188Z,100773.00
2018-06-14T03:03:29.494Z,100772.00
2018-06-14T03:05:58.658Z,100764.00
2018-06-14T03:08:28.480Z,100761.00
2018-06-14T03:10:57.641Z,100769.00
2018-06-14T03:13:26.748Z,100773.00
2018-06-14T03:15:55.918Z,100771.00
2018-06-14T03:18:25.096Z,100771.00
2018-06-14T03:20:54.181Z,100767.00
2018-06-14T03:23:23.384Z,100770.00
2018-06-14T03:25:52.471Z,100769.00
2018-06-14T03:28:21.562Z,100770.00
2018-06-14T03:30:50.676Z,100776.00
2018-06-14T03:33:19.861Z,100765.00
2018-06-14T03:35:48.972Z,100761.00
2018-06-14T03:38:18.099Z,100758.00
2018-06-14T03:40:47.218Z,100758.00
2018-06-14T03:43:16.354Z,100760.00
2018-06-14T03:45:45.560Z,100751.00
2018-06-14T03:48:14.939Z,100746.00
2018-06-14T03:50:44.059Z,100753.00
2018-06-14T03:53:13.980Z,100750.00
2018-06-14T03:55:43.120Z,100760.00
2018-06-14T03:58:15.591Z,100765.00
2018-06-14T04:00:44.807Z,100759.00
2018-06-14T04:03:13.992Z,100734.00
2018-06-14T04:05:43.129Z,100755.00
2018-06-14T04:08:12.373Z,100748.00
2018-06-14T04:10:41.748Z,100751.00
2018-06-14T04:13:11.494Z,100752.00
2018-06-14T04:15:40.830Z,100751.00
2018-06-14T04:18:10.011Z,100748.00
2018-06-14T04:20:39.252Z,100758.00
2018-06-14T04:23:09.758Z,100752.00
2018-06-14T04:25:39.078Z,100748.00
2018-06-14T04:28:08.200Z,100748.00
2018-06-14T04:30:37.579Z,100745.00
2018-06-14T04:33:06.691Z,100748.00
2018-06-14T04:35:35.884Z,100750.00
2018-06-14T04:38:04.990Z,100744.00
2018-06-14T04:40:34.084Z,100748.00
2018-06-14T04:43:03.215Z,100747.00
2018-06-14T04:45:32.343Z,100744.00
2018-06-14T04:48:01.409Z,100741.00
2018-06-14T04:50:30.569Z,100730.00
2018-06-14T04:52:59.775Z,100727.00
2018-06-14T04:55:28.904Z,100720.00
2018-06-14T04:57:58.148Z,100717.00
2018-06-14T05:00:27.291Z,100716.00
2018-06-14T05:02:56.899Z,100727.00
2018-06-14T05:05:26.520Z,100727.00
2018-06-14T05:07:56.746Z,100735.00
2018-06-14T05:10:26.478Z,100730.00
2018-06-14T05:12:55.732Z,100727.00
2018-06-14T05:15:25.456Z,100728.00
2018-06-14T05:17:54.630Z,100734.00
2018-06-14T05:20:23.812Z,100731.00
2018-06-14T05:22:53.020Z,100731.00
2018-06-14T05:25:22.197Z,100726.00
2018-06-14T05:27:51.537Z,100730.00
2018-06-14T05:30:20.720Z,100741.00
2018-06-14T05:32:49.853Z,100733.00
2018-06-14T05:35:18.944Z,100738.00
2018-06-14T05:37:48.031Z,100735.00
2018-06-14T05:40:17.135Z,100737.00
2018-06-14T05:42:46.262Z,100731.00
2018-06-14T05:45:15.372Z,100734.00
2018-06-14T05:47:44.519Z,100738.00
2018-06-14T05:50:13.683Z,100732.00
2018-06-14T05:52:42.831Z,100730.00
2018-06-14T05:55:12.085Z,100729.00
2018-06-14T05:57:41.342Z,100734.00
2018-06-14T06:00:17.583Z,100732.00
2018-06-14T06:02:48.504Z,100728.00
2018-06-14T06:05:19.107Z,100727.00
2018-06-14T06:07:48.684Z,100725.00
2018-06-14T06:10:17.943Z,100736.00
2018-06-14T06:12:47.095Z,100729.00
2018-06-14T06:15:16.298Z,100725.00
2018-06-14T06:17:45.404Z,100736.00
2018-06-14T06:20:17.392Z,100727.00
2018-06-14T06:22:52.634Z,100727.00
2018-06-14T06:25:23.443Z,100723.00
2018-06-14T06:27:52.881Z,100724.00
2018-06-14T06:30:34.486Z,100719.00
2018-06-14T06:33:06.747Z,100726.00
2018-06-14T06:35:37.015Z,100713.00
2018-06-14T06:38:06.352Z,100714.00
2018-06-14T06:40:36.081Z,100708.00
2018-06-14T06:43:06.070Z,100713.00
2018-06-14T06:45:35.824Z,100716.00
2018-06-14T06:48:05.304Z,100708.00
2018-06-14T06:50:34.581Z,100716.00
2018-06-14T06:53:03.896Z,100710.00
2018-06-14T06:55:33.852Z,100708.00
2018-06-14T06:58:03.154Z,100718.00
2018-06-14T07:00:32.289Z,100720.00
2018-06-14T07:03:01.427Z,100726.00
2018-06-14T07:05:30.655Z,100720.00
2018-06-14T07:07:59.788Z,100719.00
2018-06-14T07:10:28.910Z,100718.00
2018-06-14T07:12:58.055Z,100716.00
2018-06-14T07:15:27.780Z,100719.00
2018-06-14T07:17:57.093Z,100716.00
2018-06-14T07:20:26.194Z,100711.00
2018-06-14T07:22:55.275Z,100714.00
2018-06-14T07:25:24.468Z,100705.00
2018-06-14T07:27:53.700Z,100709.00
2018-06-14T07:30:22.876Z,100704.00
2018-06-14T07:32:52.871Z,100704.00
2018-06-14T07:35:47.396Z,100701.00
2018-06-14T07:38:16.916Z,100696.00
2018-06-14T07:43:28.047Z,100698.00
2018-06-14T07:45:57.294Z,100692.00
2018-06-14T07:48:26.445Z,100694.00
2018-06-14T07:50:55.625Z,100694.00
2018-06-14T07:53:24.718Z,100685.00
2018-06-14T07:55:53.942Z,100698.00
2018-06-14T07:58:23.142Z,100690.00
2018-06-14T08:00:52.725Z,100684.00
2018-06-14T08:03:21.917Z,100679.00
2018-06-14T08:05:51.204Z,100689.00
2018-06-14T08:08:20.403Z,100679.00
2018-06-14T08:10:49.732Z,100683.00
2018-06-14T08:13:19.147Z,100683.00
2018-06-14T08:15:49.746Z,100683.00
2018-06-14T08:18:19.245Z,100683.00
2018-06-14T08:20:49.668Z,100678.00
2018-06-14T08:26:13.362Z,100676.00
2018-06-14T08:29:31.367Z,100677.00
2018-06-14T08:32:03.780Z,100665.00
2018-06-14T08:34:32.916Z,100666.00
2018-06-14T08:37:02.216Z,100673.00
2018-06-14T08:39:31.907Z,100663.00
2018-06-14T08:42:00.998Z,100658.00
2018-06-14T08:44:34.212Z,100663.00
2018-06-14T08:47:03.491Z,100660.00
2018-06-14T08:49:51.070Z,100650.00
2018-06-14T08:52:20.690Z,100658.00
2018-06-14T08:54:50.451Z,100663.00
2018-06-14T08:57:22.652Z,100665.00
2018-06-14T08:59:51.810Z,100655.00
2018-06-14T09:02:22.842Z,100661.00
2018-06-14T09:05:22.157Z,100646.00
2018-06-14T09:07:54.280Z,100652.00
2018-06-14T09:10:42.570Z,100657.00
2018-06-14T09:14:17.138Z,100648.00
2018-06-14T09:16:47.498Z,100645.00
2018-06-14T09:22:21.168Z,100648.00
2018-06-14T09:24:58.097Z,100648.00
2018-06-14T09:27:31.797Z,100643.00
2018-06-14T09:30:01.209Z,100644.00
2018-06-14T09:38:15.222Z,100637.00
2018-06-14T09:40:44.619Z,100635.00
2018-06-14T09:43:20.838Z,100638.00
2018-06-14T09:45:53.695Z,100648.00
2018-06-14T09:48:40.083Z,100619.00
2018-06-14T09:51:10.287Z,100633.00
2018-06-14T09:53:41.320Z,100630.00
2018-06-14T09:56:10.480Z,100630.00
2018-06-14T09:58:39.582Z,100636.00
2018-06-14T10:01:08.801Z,100631.00
2018-06-14T10:03:39.866Z,100669.00
2018-06-14T10:06:12.623Z,100630.00
2018-06-14T10:11:21.348Z,100623.00
2018-06-14T10:13:57.301Z,100630.00
2018-06-14T10:16:26.466Z,100629.00
2018-06-14T10:21:30.308Z,100625.00
2018-06-14T10:23:59.241Z,100616.00
2018-06-14T10:26:29.653Z,100622.00
2018-06-14T10:29:08.959Z,100627.00
2018-06-14T10:31:39.288Z,100613.00
2018-06-14T10:34:09.280Z,100618.00
2018-06-14T10:36:38.907Z,100604.00
2018-06-14T10:39:12.345Z,100611.00
2018-06-14T10:41:45.444Z,100609.00
2018-06-14T10:44:14.726Z,100612.00
2018-06-14T10:46:43.885Z,100608.00
2018-06-14T10:49:13.850Z,100605.00
2018-06-14T10:51:43.231Z,100601.00
2018-06-14T10:54:12.588Z,100602.00
2018-06-14T10:56:41.785Z,100593.00
2018-06-14T10:59:11.073Z,100597.00
2018-06-14T11:01:40.243Z,100596.00
2018-06-14T11:04:09.398Z,100591.00
2018-06-14T11:06:38.490Z,100593.00
2018-06-14T11:09:10.254Z,100588.00
2018-06-14T11:11:39.357Z,100576.00
2018-06-14T11:14:08.449Z,100576.00
2018-06-14T11:16:40.782Z,100586.00
2018-06-14T11:19:10.048Z,100598.00
2018-06-14T11:21:39.353Z,100581.00
2018-06-14T11:24:08.443Z,100586.00
2018-06-14T11:26:37.618Z,100579.00
2018-06-14T11:29:06.729Z,100570.00
2018-06-14T11:31:35.866Z,100574.00
2018-06-14T11:34:04.933Z,100582.00
2018-06-14T11:36:34.031Z,100575.00
2018-06-14T11:39:03.369Z,100564.00
2018-06-14T11:41:32.564Z,100561.00
2018-06-14T11:44:02.241Z,100564.00
2018-06-14T11:46:31.539Z,100569.00
2018-06-14T11:49:00.765Z,100561.00
2018-06-14T11:51:29.886Z,100561.00
2018-06-14T11:53:59.702Z,100557.00
2018-06-14T11:56:28.872Z,100558.00
2018-06-14T11:58:58.021Z,100556.00
2018-06-14T12:01:27.793Z,100544.00
2018-06-14T12:03:58.069Z,100558.00
2018-06-14T12:06:27.401Z,100549.00
2018-06-14T12:08:57.105Z,100546.00
2018-06-14T12:11:26.604Z,100544.00
2018-06-14T12:13:56.067Z,100552.00
2018-06-14T12:16:26.844Z,100549.00
2018-06-14T12:18:56.325Z,100549.00
2018-06-14T12:21:27.930Z,100538.00
2018-06-14T12:23:57.261Z,100528.00
2018-06-14T12:26:27.412Z,100526.00
2018-06-14T12:28:56.717Z,100533.00
2018-06-14T12:31:25.833Z,100535.00
2018-06-14T12:33:55.681Z,100522.00
2018-06-14T12:36:27.809Z,100522.00
2018-06-14T12:38:56.953Z,100523.00
2018-06-14T12:41:26.320Z,100521.00
2018-06-14T12:43:55.690Z,100532.00
2018-06-14T12:46:24.812Z,100518.00
2018-06-14T12:48:53.902Z,100526.00
2018-06-14T12:51:23.162Z,100526.00
2018-06-14T12:53:52.297Z,100516.00
2018-06-14T12:56:21.539Z,100516.00
2018-06-14T12:58:51.492Z,100499.00
2018-06-14T13:01:21.100Z,100493.00
2018-06-14T13:03:50.002Z,100494.00
2018-06-14T13:06:19.136Z,100504.00
2018-06-14T13:08:48.287Z,100490.00
2018-06-14T13:11:17.443Z,100483.00
2018-06-14T13:13:46.733Z,100490.00
2018-06-14T13:16:15.946Z,100488.00
2018-06-14T13:19:18.010Z,100485.00
2018-06-14T13:21:47.069Z,100476.00
2018-06-14T13:24:16.174Z,100481.00
2018-06-14T13:26:45.340Z,100472.00
2018-06-14T13:29:15.443Z,100475.00
2018-06-14T13:31:44.793Z,100467.00
2018-06-14T13:34:13.961Z,100462.00
2018-06-14T13:36:44.241Z,100467.00
2018-06-14T13:39:14.389Z,100476.00
2018-06-14T13:41:43.782Z,100462.00
2018-06-14T13:44:13.171Z,100468.00
2018-06-14T13:46:42.842Z,100469.00
2018-06-14T13:49:12.225Z,100456.00
2018-06-14T13:51:41.716Z,100453.00
2018-06-14T13:54:11.399Z,100462.00
2018-06-14T13:56:41.623Z,100459.00
2018-06-14T13:59:11.303Z,100448.00
2018-06-14T14:01:40.782Z,100465.00
2018-06-14T14:04:12.976Z,100450.00
2018-06-14T14:06:42.319Z,100446.00
2018-06-14T14:09:13.751Z,100456.00
2018-06-14T14:11:43.683Z,100467.00
2018-06-14T14:14:13.484Z,100462.00
2018-06-14T14:16:46.528Z,100466.00
2018-06-14T14:19:16.100Z,100460.00
2018-06-14T14:21:45.390Z,100459.00
2018-06-14T14:24:16.019Z,100457.00
2018-06-14T14:26:45.962Z,100462.00
2018-06-14T14:29:15.143Z,100453.00
2018-06-14T14:31:44.278Z,100459.00
2018-06-14T14:34:13.522Z,100469.00
2018-06-14T14:36:42.459Z,100454.00
2018-06-14T14:39:12.887Z,100455.00
2018-06-14T14:41:42.299Z,100457.00
2018-06-14T14:44:11.402Z,100448.00
2018-06-14T14:46:40.709Z,100456.00
2018-06-14T14:49:09.834Z,100459.00
2018-06-14T14:51:39.038Z,100443.00
2018-06-14T14:54:09.708Z,100438.00
2018-06-14T14:56:50.677Z,100431.00
2018-06-14T14:59:19.905Z,100449.00
2018-06-14T15:01:49.272Z,100456.00
2018-06-14T15:04:18.560Z,100440.00
2018-06-14T15:06:47.666Z,100444.00
2018-06-14T15:09:17.740Z,100433.00
2018-06-14T15:11:46.882Z,100440.00
2018-06-14T15:14:16.607Z,100447.00
2018-06-14T15:16:45.804Z,100439.00
2018-06-14T15:19:14.991Z,100448.00
2018-06-14T15:21:44.339Z,100448.00
2018-06-14T15:24:13.454Z,100449.00
2018-06-14T15:26:55.537Z,100455.00
2018-06-14T15:29:26.947Z,100441.00
2018-06-14T15:31:56.374Z,100449.00
2018-06-14T15:34:39.827Z,100438.00
2018-06-14T15:39:49.010Z,100439.00
2018-06-14T15:42:18.423Z,100431.00
2018-06-14T15:44:47.566Z,100436.00
2018-06-14T15:47:16.785Z,100430.00
2018-06-14T15:49:46.004Z,100434.00
2018-06-14T15:52:15.121Z,100423.00
2018-06-14T15:54:45.512Z,100430.00
2018-06-14T15:57:14.864Z,100431.00
2018-06-14T15:59:44.076Z,100430.00
2018-06-14T16:02:13.304Z,100470.00
2018-06-14T16:04:45.076Z,100436.00
2018-06-14T16:07:14.261Z,100441.00
2018-06-14T16:09:46.317Z,100435.00
2018-06-14T16:12:16.208Z,100440.00
2018-06-14T16:14:45.479Z,100441.00
2018-06-14T16:17:14.646Z,100440.00
2018-06-14T16:19:44.163Z,100431.00
2018-06-14T16:22:13.696Z,100437.00
2018-06-14T16:24:42.974Z,100435.00
2018-06-14T16:27:12.215Z,100449.00
2018-06-14T16:29:42.066Z,100451.00
2018-06-14T16:32:11.347Z,100441.00
2018-06-14T16:34:40.494Z,100460.00
2018-06-14T16:37:11.174Z,100448.00
2018-06-14T16:39:40.776Z,100518.00
2018-06-14T16:42:10.077Z,100454.00
2018-06-14T16:44:39.276Z,100454.00
2018-06-14T16:47:08.508Z,100461.00
2018-06-14T16:49:37.921Z,100462.00
2018-06-14T16:52:07.172Z,100476.00
2018-06-14T16:54:36.343Z,100480.00
2018-06-14T16:57:05.619Z,100489.00
2018-06-14T16:59:34.781Z,100524.00
2018-06-14T17:02:03.924Z,100522.00
2018-06-14T17:04:33.854Z,100538.00
2018-06-14T17:07:03.149Z,100551.00
2018-06-14T17:09:32.261Z,100570.00
2018-06-14T17:12:01.482Z,100569.00
2018-06-14T17:14:30.620Z,100571.00
2018-06-14T17:17:00.336Z,100581.00
2018-06-14T17:19:29.325Z,100578.00
2018-06-14T17:21:58.609Z,100580.00
2018-06-14T17:24:27.730Z,100592.00
2018-06-14T17:26:56.885Z,100594.00
2018-06-14T17:29:26.885Z,100591.00
2018-06-14T17:31:56.172Z,100603.00
2018-06-14T17:34:26.048Z,100598.00
2018-06-14T17:36:55.174Z,100601.00
2018-06-14T17:39:24.558Z,100610.00
2018-06-14T17:41:53.915Z,100605.00
2018-06-14T17:44:25.291Z,100618.00
2018-06-14T17:46:54.582Z,100611.00
2018-06-14T17:49:24.008Z,100614.00
2018-06-14T17:51:53.692Z,100625.00
2018-06-14T17:54:23.123Z,100625.00
2018-06-14T17:56:52.558Z,100617.00
2018-06-14T17:59:22.098Z,100621.00
2018-06-14T18:01:51.244Z,100612.00
2018-06-14T18:04:20.667Z,100611.00
2018-06-14T18:06:50.433Z,100610.00
2018-06-14T18:09:20.510Z,100612.00
2018-06-14T18:11:49.739Z,100615.00
2018-06-14T18:14:19.552Z,100616.00
2018-06-14T18:16:48.863Z,100621.00
2018-06-14T18:19:18.078Z,100611.00
2018-06-14T18:21:47.725Z,100612.00
2018-06-14T18:24:17.051Z,100617.00
2018-06-14T18:26:46.280Z,100612.00
2018-06-14T18:29:15.492Z,100613.00
2018-06-14T18:31:46.142Z,100613.00
2018-06-14T18:34:15.642Z,100614.00
2018-06-14T18:36:44.871Z,100611.00
2018-06-14T18:39:14.665Z,100610.00
2018-06-14T18:41:45.646Z,100610.00
2018-06-14T18:44:15.524Z,100604.00
2018-06-14T18:46:44.701Z,100602.00
2018-06-14T18:49:13.996Z,100604.00
2018-06-14T18:51:44.726Z,100592.00
2018-06-14T18:54:13.980Z,100602.00
2018-06-14T18:56:43.240Z,100595.00
2018-06-14T18:59:14.443Z,100593.00
2018-06-14T19:01:45.354Z,100603.00
2018-06-14T19:04:14.243Z,100609.00
2018-06-14T19:06:43.661Z,100613.00
2018-06-14T19:09:13.896Z,100611.00
2018-06-14T19:12:04.261Z,100607.00
2018-06-14T19:14:35.697Z,100614.00
2018-06-14T19:17:06.761Z,100626.00
2018-06-14T19:19:36.693Z,100623.00
2018-06-14T19:22:05.962Z,100625.00
2018-06-14T19:24:34.893Z,100635.00
2018-06-14T19:27:05.159Z,100633.00
2018-06-14T19:29:34.516Z,100640.00
2018-06-14T19:32:03.933Z,100636.00
2018-06-14T19:34:33.148Z,100633.00
2018-06-14T19:37:02.300Z,100635.00
2018-06-14T19:39:31.420Z,100628.00
2018-06-14T19:42:00.658Z,100646.00
2018-06-14T19:44:29.889Z,100635.00
2018-06-14T19:46:59.102Z,100642.00
2018-06-14T19:49:29.297Z,100641.00
2018-06-14T19:51:58.551Z,100656.00
2018-06-14T19:54:28.022Z,100631.00
2018-06-14T19:56:57.333Z,100633.00
2018-06-14T19:59:26.602Z,100639.00
2018-06-14T20:01:56.176Z,100621.00
2018-06-14T20:04:26.265Z,100637.00
2018-06-14T20:06:55.748Z,100638.00
2018-06-14T20:09:25.149Z,100635.00
2018-06-14T20:11:54.584Z,100638.00
2018-06-14T20:14:24.416Z,100655.00
2018-06-14T20:16:54.093Z,100627.00
2018-06-14T20:19:23.550Z,100638.00
2018-06-14T20:21:53.073Z,100631.00
2018-06-14T20:24:22.766Z,100625.00
2018-06-14T20:26:52.113Z,100637.00
2018-06-14T20:29:21.570Z,100632.00
2018-06-14T20:31:51.061Z,100629.00
2018-06-14T20:34:20.280Z,100630.00
2018-06-14T20:36:49.489Z,100636.00
2018-06-14T20:39:18.635Z,100641.00
2018-06-14T20:41:48.935Z,100629.00
2018-06-14T20:44:18.285Z,100630.00
2018-06-14T20:46:47.628Z,100622.00
2018-06-14T20:49:16.838Z,100631.00
2018-06-14T20:51:46.176Z,100628.00
2018-06-14T20:54:17.098Z,100637.00
2018-06-14T20:56:46.203Z,100633.00
2018-06-14T20:59:15.443Z,100633.00
2018-06-14T21:01:44.771Z,100636.00
2018-06-14T21:04:14.089Z,100635.00
2018-06-14T21:06:43.857Z,100637.00
2018-06-14T21:09:13.068Z,100632.00
2018-06-14T21:11:42.965Z,100655.00
2018-06-14T21:14:12.068Z,100649.00
2018-06-14T21:16:41.761Z,100494.00
2018-06-14T21:19:12.628Z,100645.00
2018-06-14T21:21:42.012Z,100646.00
2018-06-14T21:24:12.214Z,100650.00
2018-06-14T21:26:41.598Z,100655.00
2018-06-14T21:29:11.100Z,100648.00
2018-06-14T21:31:40.479Z,100646.00
2018-06-14T21:34:11.052Z,100661.00
2018-06-14T21:36:40.458Z,100628.00
2018-06-14T21:39:10.251Z,100656.00
2018-06-14T21:41:40.427Z,100655.00
2018-06-14T21:44:10.026Z,100656.00
2018-06-14T21:46:39.446Z,100659.00
2018-06-14T21:49:08.754Z,100661.00
2018-06-14T21:51:38.412Z,100666.00
2018-06-14T21:54:07.744Z,100675.00
2018-06-14T21:56:36.919Z,100668.00
2018-06-14T21:59:07.026Z,100671.00
2018-06-14T22:01:36.179Z,100676.00
2018-06-14T22:04:05.808Z,100673.00
2018-06-14T22:06:36.138Z,100674.00
2018-06-14T22:09:08.027Z,100664.00
2018-06-14T22:11:37.263Z,100678.00
2018-06-14T22:14:07.543Z,100679.00
2018-06-14T22:16:37.983Z,100674.00
2018-06-14T22:19:07.273Z,100671.00
2018-06-14T22:21:36.656Z,100676.00
2018-06-14T22:24:06.670Z,100672.00
2018-06-14T22:26:35.851Z,100679.00
2018-06-14T22:29:06.016Z,100675.00
2018-06-14T22:31:36.689Z,100673.00
2018-06-14T22:34:24.231Z,100681.00
2018-06-14T22:36:53.496Z,100687.00
2018-06-14T22:39:22.698Z,100683.00
2018-06-14T22:41:51.914Z,100691.00
2018-06-14T22:44:23.656Z,100703.00
2018-06-14T22:46:52.803Z,100686.00
2018-06-14T22:49:21.957Z,100679.00
2018-06-14T22:53:05.244Z,100681.00
2018-06-14T22:55:34.627Z,100693.00
2018-06-14T22:58:03.860Z,100695.00
2018-06-14T23:01:47.376Z,100687.00
2018-06-14T23:04:18.331Z,100704.00
2018-06-14T23:06:48.554Z,100691.00
2018-06-14T23:10:39.490Z,100694.00
2018-06-14T23:13:09.797Z,100694.00
2018-06-14T23:15:39.072Z,100698.00
2018-06-14T23:18:08.318Z,100696.00
2018-06-14T23:20:37.672Z,100687.00
2018-06-14T23:23:07.452Z,100688.00
2018-06-14T23:25:37.223Z,100690.00
2018-06-14T23:28:06.473Z,100701.00
2018-06-14T23:30:35.623Z,100698.00
2018-06-14T23:33:04.869Z,100698.00
2018-06-14T23:35:34.221Z,100692.00
2018-06-14T23:38:03.556Z,100704.00
2018-06-14T23:40:32.719Z,100703.00
2018-06-14T23:43:02.046Z,100700.00
2018-06-14T23:45:31.923Z,100699.00
2018-06-14T23:48:01.112Z,100700.00
2018-06-14T23:50:30.630Z,100713.00
2018-06-14T23:52:59.805Z,100713.00
2018-06-14T23:55:29.097Z,100712.00
2018-06-14T23:57:58.377Z,100715.00
